sensor_id;sensor_type;location;lat;lon;timestamp;P1;durP1;ratioP1;P2;durP2;ratioP2
26098;SDS011;13860;52.370;6.764;2023-03-14T00:01:09;10.93;;;3.00;;
26098;SDS011;13860;52.370;6.764;2023-03-14T00:04:15;14.50;;;3.55;;
26098;SDS011;13860;52.370;6.764;2023-03-14T00:07:21;13.80;;;2.78;;
26098;SDS011;13860;52.370;6.764;2023-03-14T00:10:26;12.45;;;2.88;;
26098;SDS011;13860;52.370;6.764;2023-03-14T00:13:32;13.55;;;2.22;;
26098;SDS011;13860;52.370;6.764;2023-03-14T00:19:43;10.50;;;2.80;;
26098;SDS011;13860;52.370;6.764;2023-03-14T00:25:53;20.88;;;3.35;;
26098;SDS011;13860;52.370;6.764;2023-03-14T00:28:57;8.52;;;2.00;;
26098;SDS011;13860;52.370;6.764;2023-03-14T00:32:05;13.38;;;2.13;;
26098;SDS011;13860;52.370;6.764;2023-03-14T00:35:09;8.15;;;2.28;;
26098;SDS011;13860;52.370;6.764;2023-03-14T00:38:15;8.77;;;2.40;;
26098;SDS011;13860;52.370;6.764;2023-03-14T00:41:20;4.50;;;1.80;;
26098;SDS011;13860;52.370;6.764;2023-03-14T00:44:27;8.05;;;2.13;;
26098;SDS011;13860;52.370;6.764;2023-03-14T00:47:33;11.32;;;2.47;;
26098;SDS011;13860;52.370;6.764;2023-03-14T00:50:40;5.35;;;1.90;;
26098;SDS011;13860;52.370;6.764;2023-03-14T00:53:45;8.95;;;1.95;;
26098;SDS011;13860;52.370;6.764;2023-03-14T00:56:51;15.18;;;2.42;;
26098;SDS011;13860;52.370;6.764;2023-03-14T00:59:55;12.82;;;3.00;;
26098;SDS011;13860;52.370;6.764;2023-03-14T01:03:03;11.25;;;2.08;;
26098;SDS011;13860;52.370;6.764;2023-03-14T01:06:09;12.50;;;2.22;;
26098;SDS011;13860;52.370;6.764;2023-03-14T01:09:18;9.52;;;2.05;;
26098;SDS011;13860;52.370;6.764;2023-03-14T01:12:23;9.95;;;2.30;;
26098;SDS011;13860;52.370;6.764;2023-03-14T01:15:29;16.27;;;2.90;;
26098;SDS011;13860;52.370;6.764;2023-03-14T01:21:42;7.40;;;2.10;;
26098;SDS011;13860;52.370;6.764;2023-03-14T01:24:47;6.95;;;1.83;;
26098;SDS011;13860;52.370;6.764;2023-03-14T01:27:53;11.02;;;3.30;;
26098;SDS011;13860;52.370;6.764;2023-03-14T01:31:01;15.38;;;2.38;;
26098;SDS011;13860;52.370;6.764;2023-03-14T01:34:10;7.95;;;2.03;;
26098;SDS011;13860;52.370;6.764;2023-03-14T01:37:15;13.18;;;2.33;;
26098;SDS011;13860;52.370;6.764;2023-03-14T01:40:21;17.90;;;2.40;;
26098;SDS011;13860;52.370;6.764;2023-03-14T01:43:27;9.20;;;1.90;;
26098;SDS011;13860;52.370;6.764;2023-03-14T01:46:37;9.10;;;1.90;;
26098;SDS011;13860;52.370;6.764;2023-03-14T01:49:46;9.65;;;1.95;;
26098;SDS011;13860;52.370;6.764;2023-03-14T01:52:56;9.23;;;1.90;;
26098;SDS011;13860;52.370;6.764;2023-03-14T01:56:01;10.80;;;3.10;;
26098;SDS011;13860;52.370;6.764;2023-03-14T01:59:09;9.02;;;2.58;;
26098;SDS011;13860;52.370;6.764;2023-03-14T02:02:14;8.27;;;1.92;;
26098;SDS011;13860;52.370;6.764;2023-03-14T02:05:23;10.27;;;2.05;;
26098;SDS011;13860;52.370;6.764;2023-03-14T02:08:34;5.30;;;2.78;;
26098;SDS011;13860;52.370;6.764;2023-03-14T02:11:48;8.73;;;1.50;;
26098;SDS011;13860;52.370;6.764;2023-03-14T02:15:09;22.30;;;2.92;;
26098;SDS011;13860;52.370;6.764;2023-03-14T02:18:35;10.75;;;2.38;;
26098;SDS011;13860;52.370;6.764;2023-03-14T02:22:10;15.90;;;2.58;;
26098;SDS011;13860;52.370;6.764;2023-03-14T02:25:29;7.90;;;2.10;;
26098;SDS011;13860;52.370;6.764;2023-03-14T02:28:44;8.10;;;2.28;;
26098;SDS011;13860;52.370;6.764;2023-03-14T02:31:51;11.30;;;2.25;;
26098;SDS011;13860;52.370;6.764;2023-03-14T02:34:56;8.20;;;2.78;;
26098;SDS011;13860;52.370;6.764;2023-03-14T02:38:06;8.23;;;2.10;;
26098;SDS011;13860;52.370;6.764;2023-03-14T02:41:18;6.15;;;1.98;;
26098;SDS011;13860;52.370;6.764;2023-03-14T02:44:46;7.65;;;1.98;;
26098;SDS011;13860;52.370;6.764;2023-03-14T02:47:52;8.80;;;1.95;;
26098;SDS011;13860;52.370;6.764;2023-03-14T02:51:04;8.02;;;1.85;;
26098;SDS011;13860;52.370;6.764;2023-03-14T02:54:09;6.00;;;1.67;;
26098;SDS011;13860;52.370;6.764;2023-03-14T02:57:16;10.27;;;2.05;;
26098;SDS011;13860;52.370;6.764;2023-03-14T03:03:28;11.18;;;1.95;;
26098;SDS011;13860;52.370;6.764;2023-03-14T03:06:32;11.23;;;1.70;;
26098;SDS011;13860;52.370;6.764;2023-03-14T03:09:38;7.13;;;1.73;;
26098;SDS011;13860;52.370;6.764;2023-03-14T03:12:42;11.20;;;2.50;;
26098;SDS011;13860;52.370;6.764;2023-03-14T03:15:50;5.07;;;1.60;;
26098;SDS011;13860;52.370;6.764;2023-03-14T03:18:54;13.43;;;2.00;;
26098;SDS011;13860;52.370;6.764;2023-03-14T03:22:00;6.63;;;1.98;;
26098;SDS011;13860;52.370;6.764;2023-03-14T03:28:10;6.85;;;1.75;;
26098;SDS011;13860;52.370;6.764;2023-03-14T03:31:17;4.55;;;1.35;;
26098;SDS011;13860;52.370;6.764;2023-03-14T03:34:24;3.95;;;1.48;;
26098;SDS011;13860;52.370;6.764;2023-03-14T03:37:29;5.63;;;1.40;;
26098;SDS011;13860;52.370;6.764;2023-03-14T03:40:36;9.30;;;1.55;;
26098;SDS011;13860;52.370;6.764;2023-03-14T03:43:41;7.07;;;1.63;;
26098;SDS011;13860;52.370;6.764;2023-03-14T03:46:52;4.57;;;1.23;;
26098;SDS011;13860;52.370;6.764;2023-03-14T03:49:56;6.20;;;1.27;;
26098;SDS011;13860;52.370;6.764;2023-03-14T03:53:02;9.05;;;1.27;;
26098;SDS011;13860;52.370;6.764;2023-03-14T03:56:06;7.00;;;1.40;;
26098;SDS011;13860;52.370;6.764;2023-03-14T03:59:15;10.77;;;1.80;;
26098;SDS011;13860;52.370;6.764;2023-03-14T04:02:21;9.90;;;1.58;;
26098;SDS011;13860;52.370;6.764;2023-03-14T04:05:28;7.15;;;1.95;;
26098;SDS011;13860;52.370;6.764;2023-03-14T04:08:37;5.57;;;1.58;;
26098;SDS011;13860;52.370;6.764;2023-03-14T04:11:45;8.43;;;1.60;;
26098;SDS011;13860;52.370;6.764;2023-03-14T04:14:55;6.32;;;1.70;;
26098;SDS011;13860;52.370;6.764;2023-03-14T04:18:03;6.60;;;1.63;;
26098;SDS011;13860;52.370;6.764;2023-03-14T04:21:07;7.00;;;1.67;;
26098;SDS011;13860;52.370;6.764;2023-03-14T04:24:22;11.77;;;1.73;;
26098;SDS011;13860;52.370;6.764;2023-03-14T04:27:27;8.60;;;1.50;;
26098;SDS011;13860;52.370;6.764;2023-03-14T04:30:33;9.25;;;1.60;;
26098;SDS011;13860;52.370;6.764;2023-03-14T04:33:46;13.65;;;2.08;;
26098;SDS011;13860;52.370;6.764;2023-03-14T04:36:57;9.48;;;1.70;;
26098;SDS011;13860;52.370;6.764;2023-03-14T04:40:10;7.47;;;1.80;;
26098;SDS011;13860;52.370;6.764;2023-03-14T04:43:18;11.85;;;1.90;;
26098;SDS011;13860;52.370;6.764;2023-03-14T04:46:27;10.13;;;2.05;;
26098;SDS011;13860;52.370;6.764;2023-03-14T04:49:35;10.82;;;1.50;;
26098;SDS011;13860;52.370;6.764;2023-03-14T04:52:41;15.65;;;2.58;;
26098;SDS011;13860;52.370;6.764;2023-03-14T04:55:48;13.93;;;1.63;;
26098;SDS011;13860;52.370;6.764;2023-03-14T04:58:53;11.00;;;2.17;;
26098;SDS011;13860;52.370;6.764;2023-03-14T05:01:59;10.25;;;1.88;;
26098;SDS011;13860;52.370;6.764;2023-03-14T05:05:18;10.70;;;2.13;;
26098;SDS011;13860;52.370;6.764;2023-03-14T05:08:47;9.32;;;1.70;;
26098;SDS011;13860;52.370;6.764;2023-03-14T05:12:10;4.35;;;1.42;;
26098;SDS011;13860;52.370;6.764;2023-03-14T05:16:01;6.33;;;1.40;;
26098;SDS011;13860;52.370;6.764;2023-03-14T05:19:33;9.80;;;1.77;;
26098;SDS011;13860;52.370;6.764;2023-03-14T05:22:51;5.15;;;1.85;;
26098;SDS011;13860;52.370;6.764;2023-03-14T05:26:15;10.15;;;1.83;;
26098;SDS011;13860;52.370;6.764;2023-03-14T05:29:37;11.45;;;2.42;;
26098;SDS011;13860;52.370;6.764;2023-03-14T05:33:00;10.25;;;2.13;;
26098;SDS011;13860;52.370;6.764;2023-03-14T05:36:34;8.65;;;2.00;;
26098;SDS011;13860;52.370;6.764;2023-03-14T05:39:54;10.80;;;1.88;;
26098;SDS011;13860;52.370;6.764;2023-03-14T05:43:19;15.48;;;1.92;;
26098;SDS011;13860;52.370;6.764;2023-03-14T05:46:52;13.13;;;1.60;;
26098;SDS011;13860;52.370;6.764;2023-03-14T05:50:18;9.80;;;1.80;;
26098;SDS011;13860;52.370;6.764;2023-03-14T05:53:30;11.75;;;1.88;;
26098;SDS011;13860;52.370;6.764;2023-03-14T05:56:57;9.52;;;1.73;;
26098;SDS011;13860;52.370;6.764;2023-03-14T06:00:20;9.43;;;1.75;;
26098;SDS011;13860;52.370;6.764;2023-03-14T06:03:56;10.40;;;1.90;;
26098;SDS011;13860;52.370;6.764;2023-03-14T06:07:01;13.13;;;2.03;;
26098;SDS011;13860;52.370;6.764;2023-03-14T06:10:08;13.48;;;2.13;;
26098;SDS011;13860;52.370;6.764;2023-03-14T06:13:15;12.95;;;2.00;;
26098;SDS011;13860;52.370;6.764;2023-03-14T06:16:21;13.20;;;1.95;;
26098;SDS011;13860;52.370;6.764;2023-03-14T06:19:27;8.50;;;1.50;;
26098;SDS011;13860;52.370;6.764;2023-03-14T06:22:33;15.15;;;2.40;;
26098;SDS011;13860;52.370;6.764;2023-03-14T06:25:39;13.73;;;1.75;;
26098;SDS011;13860;52.370;6.764;2023-03-14T06:28:48;4.53;;;1.30;;
26098;SDS011;13860;52.370;6.764;2023-03-14T06:31:54;13.80;;;1.63;;
26098;SDS011;13860;52.370;6.764;2023-03-14T06:35:00;8.52;;;1.67;;
26098;SDS011;13860;52.370;6.764;2023-03-14T06:38:09;6.38;;;1.88;;
26098;SDS011;13860;52.370;6.764;2023-03-14T06:41:15;7.20;;;1.45;;
26098;SDS011;13860;52.370;6.764;2023-03-14T06:44:24;8.65;;;1.73;;
26098;SDS011;13860;52.370;6.764;2023-03-14T06:47:30;5.53;;;1.40;;
26098;SDS011;13860;52.370;6.764;2023-03-14T06:50:34;3.65;;;1.40;;
26098;SDS011;13860;52.370;6.764;2023-03-14T06:53:41;5.18;;;1.40;;
26098;SDS011;13860;52.370;6.764;2023-03-14T06:56:47;7.70;;;1.50;;
26098;SDS011;13860;52.370;6.764;2023-03-14T06:59:55;7.45;;;1.55;;
26098;SDS011;13860;52.370;6.764;2023-03-14T07:03:00;10.77;;;1.98;;
26098;SDS011;13860;52.370;6.764;2023-03-14T07:06:10;8.65;;;2.00;;
26098;SDS011;13860;52.370;6.764;2023-03-14T07:12:26;8.25;;;1.50;;
26098;SDS011;13860;52.370;6.764;2023-03-14T07:18:42;7.88;;;1.30;;
26098;SDS011;13860;52.370;6.764;2023-03-14T07:21:46;4.50;;;1.60;;
26098;SDS011;13860;52.370;6.764;2023-03-14T07:24:57;6.55;;;1.30;;
26098;SDS011;13860;52.370;6.764;2023-03-14T07:28:02;8.50;;;1.63;;
26098;SDS011;13860;52.370;6.764;2023-03-14T07:31:11;10.80;;;2.25;;
26098;SDS011;13860;52.370;6.764;2023-03-14T07:34:15;7.68;;;1.77;;
26098;SDS011;13860;52.370;6.764;2023-03-14T07:37:22;5.18;;;1.58;;
26098;SDS011;13860;52.370;6.764;2023-03-14T07:43:32;8.98;;;1.70;;
26098;SDS011;13860;52.370;6.764;2023-03-14T07:46:39;5.28;;;2.22;;
26098;SDS011;13860;52.370;6.764;2023-03-14T07:49:45;5.75;;;1.77;;
26098;SDS011;13860;52.370;6.764;2023-03-14T07:55:55;7.50;;;1.88;;
26098;SDS011;13860;52.370;6.764;2023-03-14T07:58:59;8.13;;;1.95;;
26098;SDS011;13860;52.370;6.764;2023-03-14T08:02:09;8.18;;;2.33;;
26098;SDS011;13860;52.370;6.764;2023-03-14T08:05:14;10.10;;;2.80;;
26098;SDS011;13860;52.370;6.764;2023-03-14T08:08:20;3.78;;;0.50;;
26098;SDS011;13860;52.370;6.764;2023-03-14T08:11:24;3.30;;;0.73;;
26098;SDS011;13860;52.370;6.764;2023-03-14T08:14:30;2.83;;;0.75;;
26098;SDS011;13860;52.370;6.764;2023-03-14T08:17:36;2.00;;;0.90;;
26098;SDS011;13860;52.370;6.764;2023-03-14T08:20:42;1.58;;;0.40;;
26098;SDS011;13860;52.370;6.764;2023-03-14T08:23:46;3.10;;;0.60;;
26098;SDS011;13860;52.370;6.764;2023-03-14T08:26:52;2.63;;;0.50;;
26098;SDS011;13860;52.370;6.764;2023-03-14T08:29:57;1.38;;;0.50;;
26098;SDS011;13860;52.370;6.764;2023-03-14T08:33:05;1.48;;;0.70;;
26098;SDS011;13860;52.370;6.764;2023-03-14T08:36:10;1.30;;;0.60;;
26098;SDS011;13860;52.370;6.764;2023-03-14T08:39:16;1.73;;;0.60;;
26098;SDS011;13860;52.370;6.764;2023-03-14T08:42:20;5.18;;;1.48;;
26098;SDS011;13860;52.370;6.764;2023-03-14T08:45:26;5.53;;;0.90;;
26098;SDS011;13860;52.370;6.764;2023-03-14T08:48:32;6.38;;;0.57;;
26098;SDS011;13860;52.370;6.764;2023-03-14T08:51:38;2.03;;;0.50;;
26098;SDS011;13860;52.370;6.764;2023-03-14T08:54:43;7.25;;;0.70;;
26098;SDS011;13860;52.370;6.764;2023-03-14T08:57:49;3.95;;;0.50;;
26098;SDS011;13860;52.370;6.764;2023-03-14T09:00:53;2.97;;;0.60;;
26098;SDS011;13860;52.370;6.764;2023-03-14T09:04:01;1.55;;;0.30;;
26098;SDS011;13860;52.370;6.764;2023-03-14T09:07:08;5.35;;;1.38;;
26098;SDS011;13860;52.370;6.764;2023-03-14T09:10:15;3.67;;;0.75;;
26098;SDS011;13860;52.370;6.764;2023-03-14T09:13:19;2.47;;;0.77;;
26098;SDS011;13860;52.370;6.764;2023-03-14T09:16:25;2.40;;;0.60;;
26098;SDS011;13860;52.370;6.764;2023-03-14T09:22:37;2.72;;;0.43;;
26098;SDS011;13860;52.370;6.764;2023-03-14T09:28:46;0.82;;;0.30;;
26098;SDS011;13860;52.370;6.764;2023-03-14T09:31:51;0.57;;;0.22;;
26098;SDS011;13860;52.370;6.764;2023-03-14T09:34:59;3.30;;;0.60;;
26098;SDS011;13860;52.370;6.764;2023-03-14T09:38:03;1.83;;;0.40;;
26098;SDS011;13860;52.370;6.764;2023-03-14T09:41:14;2.78;;;0.43;;
26098;SDS011;13860;52.370;6.764;2023-03-14T09:44:21;1.48;;;0.30;;
26098;SDS011;13860;52.370;6.764;2023-03-14T09:47:32;0.95;;;0.38;;
26098;SDS011;13860;52.370;6.764;2023-03-14T09:50:50;1.08;;;0.40;;
26098;SDS011;13860;52.370;6.764;2023-03-14T09:53:57;3.08;;;0.50;;
26098;SDS011;13860;52.370;6.764;2023-03-14T09:57:02;3.63;;;0.50;;
26098;SDS011;13860;52.370;6.764;2023-03-14T10:00:13;1.38;;;0.55;;
26098;SDS011;13860;52.370;6.764;2023-03-14T10:03:25;3.25;;;0.50;;
26098;SDS011;13860;52.370;6.764;2023-03-14T10:06:36;1.55;;;0.80;;
26098;SDS011;13860;52.370;6.764;2023-03-14T10:09:42;5.63;;;0.85;;
26098;SDS011;13860;52.370;6.764;2023-03-14T10:12:54;3.25;;;0.90;;
26098;SDS011;13860;52.370;6.764;2023-03-14T10:16:00;1.95;;;0.80;;
26098;SDS011;13860;52.370;6.764;2023-03-14T10:19:10;3.50;;;1.02;;
26098;SDS011;13860;52.370;6.764;2023-03-14T10:22:18;2.17;;;0.73;;
26098;SDS011;13860;52.370;6.764;2023-03-14T10:25:26;7.85;;;1.17;;
26098;SDS011;13860;52.370;6.764;2023-03-14T10:28:32;5.47;;;0.68;;
26098;SDS011;13860;52.370;6.764;2023-03-14T10:31:46;5.85;;;1.10;;
26098;SDS011;13860;52.370;6.764;2023-03-14T10:35:19;3.65;;;0.88;;
26098;SDS011;13860;52.370;6.764;2023-03-14T10:38:29;8.35;;;1.20;;
26098;SDS011;13860;52.370;6.764;2023-03-14T10:41:36;6.85;;;1.65;;
26098;SDS011;13860;52.370;6.764;2023-03-14T10:44:42;23.60;;;1.63;;
26098;SDS011;13860;52.370;6.764;2023-03-14T10:47:50;7.28;;;1.65;;
26098;SDS011;13860;52.370;6.764;2023-03-14T10:50:57;14.45;;;1.60;;
26098;SDS011;13860;52.370;6.764;2023-03-14T10:54:14;17.48;;;2.30;;
26098;SDS011;13860;52.370;6.764;2023-03-14T10:57:24;10.02;;;2.25;;
26098;SDS011;13860;52.370;6.764;2023-03-14T11:00:29;19.27;;;1.92;;
26098;SDS011;13860;52.370;6.764;2023-03-14T11:03:36;11.75;;;1.67;;
26098;SDS011;13860;52.370;6.764;2023-03-14T11:06:44;16.35;;;1.65;;
26098;SDS011;13860;52.370;6.764;2023-03-14T11:09:58;17.33;;;2.65;;
26098;SDS011;13860;52.370;6.764;2023-03-14T11:13:15;10.68;;;2.08;;
26098;SDS011;13860;52.370;6.764;2023-03-14T11:16:25;19.23;;;2.33;;
26098;SDS011;13860;52.370;6.764;2023-03-14T11:23:08;15.57;;;2.70;;
26098;SDS011;13860;52.370;6.764;2023-03-14T11:26:23;22.15;;;3.67;;
26098;SDS011;13860;52.370;6.764;2023-03-14T11:29:36;17.42;;;2.45;;
26098;SDS011;13860;52.370;6.764;2023-03-14T11:32:44;13.68;;;2.67;;
26098;SDS011;13860;52.370;6.764;2023-03-14T11:35:53;18.15;;;2.83;;
26098;SDS011;13860;52.370;6.764;2023-03-14T11:39:03;27.70;;;4.45;;
26098;SDS011;13860;52.370;6.764;2023-03-14T11:42:18;29.30;;;3.13;;
26098;SDS011;13860;52.370;6.764;2023-03-14T11:45:25;19.27;;;3.00;;
26098;SDS011;13860;52.370;6.764;2023-03-14T11:48:39;27.48;;;3.70;;
26098;SDS011;13860;52.370;6.764;2023-03-14T11:51:46;24.40;;;3.00;;
26098;SDS011;13860;52.370;6.764;2023-03-14T11:54:56;21.73;;;4.03;;
26098;SDS011;13860;52.370;6.764;2023-03-14T11:58:09;21.35;;;3.08;;
26098;SDS011;13860;52.370;6.764;2023-03-14T12:01:19;22.52;;;2.63;;
26098;SDS011;13860;52.370;6.764;2023-03-14T12:04:41;12.43;;;2.75;;
26098;SDS011;13860;52.370;6.764;2023-03-14T12:08:01;26.67;;;3.83;;
26098;SDS011;13860;52.370;6.764;2023-03-14T12:11:34;20.02;;;2.83;;
26098;SDS011;13860;52.370;6.764;2023-03-14T12:14:51;23.20;;;3.05;;
26098;SDS011;13860;52.370;6.764;2023-03-14T12:17:58;16.88;;;2.70;;
26098;SDS011;13860;52.370;6.764;2023-03-14T12:21:05;16.05;;;2.50;;
26098;SDS011;13860;52.370;6.764;2023-03-14T12:24:15;20.23;;;3.10;;
26098;SDS011;13860;52.370;6.764;2023-03-14T12:30:45;13.73;;;2.13;;
26098;SDS011;13860;52.370;6.764;2023-03-14T12:34:00;12.20;;;1.98;;
26098;SDS011;13860;52.370;6.764;2023-03-14T12:37:06;15.77;;;1.60;;
26098;SDS011;13860;52.370;6.764;2023-03-14T12:40:20;15.23;;;1.65;;
26098;SDS011;13860;52.370;6.764;2023-03-14T12:43:29;16.80;;;2.00;;
26098;SDS011;13860;52.370;6.764;2023-03-14T12:46:39;12.73;;;2.13;;
26098;SDS011;13860;52.370;6.764;2023-03-14T12:49:43;13.57;;;2.22;;
26098;SDS011;13860;52.370;6.764;2023-03-14T12:53:05;21.40;;;2.03;;
26098;SDS011;13860;52.370;6.764;2023-03-14T12:56:37;9.13;;;1.75;;
26098;SDS011;13860;52.370;6.764;2023-03-14T12:59:51;12.65;;;2.30;;
26098;SDS011;13860;52.370;6.764;2023-03-14T13:03:02;9.60;;;1.48;;
26098;SDS011;13860;52.370;6.764;2023-03-14T13:09:50;10.23;;;2.13;;
26098;SDS011;13860;52.370;6.764;2023-03-14T13:13:01;17.55;;;1.63;;
26098;SDS011;13860;52.370;6.764;2023-03-14T13:16:15;10.55;;;1.58;;
26098;SDS011;13860;52.370;6.764;2023-03-14T13:19:25;6.68;;;1.23;;
26098;SDS011;13860;52.370;6.764;2023-03-14T13:22:32;7.38;;;1.38;;
26098;SDS011;13860;52.370;6.764;2023-03-14T13:25:41;8.63;;;1.05;;
26098;SDS011;13860;52.370;6.764;2023-03-14T13:31:52;8.10;;;1.10;;
26098;SDS011;13860;52.370;6.764;2023-03-14T13:35:00;5.10;;;1.40;;
26098;SDS011;13860;52.370;6.764;2023-03-14T13:38:14;7.47;;;2.03;;
26098;SDS011;13860;52.370;6.764;2023-03-14T13:41:20;9.25;;;1.45;;
26098;SDS011;13860;52.370;6.764;2023-03-14T13:44:30;3.22;;;0.82;;
26098;SDS011;13860;52.370;6.764;2023-03-14T13:47:37;7.57;;;1.17;;
26098;SDS011;13860;52.370;6.764;2023-03-14T13:50:51;7.90;;;1.40;;
26098;SDS011;13860;52.370;6.764;2023-03-14T13:53:57;6.90;;;1.45;;
26098;SDS011;13860;52.370;6.764;2023-03-14T13:57:06;10.63;;;1.85;;
26098;SDS011;13860;52.370;6.764;2023-03-14T14:00:17;10.57;;;1.60;;
26098;SDS011;13860;52.370;6.764;2023-03-14T14:03:24;12.15;;;1.35;;
26098;SDS011;13860;52.370;6.764;2023-03-14T14:06:31;8.15;;;1.30;;
26098;SDS011;13860;52.370;6.764;2023-03-14T14:09:39;9.88;;;1.48;;
26098;SDS011;13860;52.370;6.764;2023-03-14T14:12:46;6.25;;;1.23;;
26098;SDS011;13860;52.370;6.764;2023-03-14T14:15:56;9.55;;;1.55;;
26098;SDS011;13860;52.370;6.764;2023-03-14T14:19:03;11.27;;;1.65;;
26098;SDS011;13860;52.370;6.764;2023-03-14T14:22:13;7.88;;;1.55;;
26098;SDS011;13860;52.370;6.764;2023-03-14T14:25:18;9.45;;;1.90;;
26098;SDS011;13860;52.370;6.764;2023-03-14T14:28:25;5.35;;;1.60;;
26098;SDS011;13860;52.370;6.764;2023-03-14T14:31:31;5.10;;;1.27;;
26098;SDS011;13860;52.370;6.764;2023-03-14T14:34:40;4.72;;;1.02;;
26098;SDS011;13860;52.370;6.764;2023-03-14T14:37:52;8.43;;;1.35;;
26098;SDS011;13860;52.370;6.764;2023-03-14T14:40:59;4.20;;;1.20;;
26098;SDS011;13860;52.370;6.764;2023-03-14T14:44:05;4.68;;;1.10;;
26098;SDS011;13860;52.370;6.764;2023-03-14T14:47:12;6.30;;;1.30;;
26098;SDS011;13860;52.370;6.764;2023-03-14T14:50:27;11.55;;;1.50;;
26098;SDS011;13860;52.370;6.764;2023-03-14T14:53:40;7.55;;;1.52;;
26098;SDS011;13860;52.370;6.764;2023-03-14T14:56:46;7.35;;;1.85;;
26098;SDS011;13860;52.370;6.764;2023-03-14T14:59:54;6.35;;;1.83;;
26098;SDS011;13860;52.370;6.764;2023-03-14T15:03:00;8.90;;;1.58;;
26098;SDS011;13860;52.370;6.764;2023-03-14T15:06:08;6.78;;;1.30;;
26098;SDS011;13860;52.370;6.764;2023-03-14T15:09:15;4.78;;;1.15;;
26098;SDS011;13860;52.370;6.764;2023-03-14T15:12:21;4.30;;;1.30;;
26098;SDS011;13860;52.370;6.764;2023-03-14T15:15:26;8.10;;;1.60;;
26098;SDS011;13860;52.370;6.764;2023-03-14T15:18:32;5.47;;;1.35;;
26098;SDS011;13860;52.370;6.764;2023-03-14T15:21:36;11.60;;;1.80;;
26098;SDS011;13860;52.370;6.764;2023-03-14T15:24:44;6.60;;;1.58;;
26098;SDS011;13860;52.370;6.764;2023-03-14T15:27:48;11.95;;;1.63;;
26098;SDS011;13860;52.370;6.764;2023-03-14T15:30:55;14.48;;;2.15;;
26098;SDS011;13860;52.370;6.764;2023-03-14T15:34:00;5.68;;;1.38;;
26098;SDS011;13860;52.370;6.764;2023-03-14T15:37:08;12.82;;;1.60;;
26098;SDS011;13860;52.370;6.764;2023-03-14T15:40:16;7.88;;;1.67;;
26098;SDS011;13860;52.370;6.764;2023-03-14T15:43:22;12.55;;;1.77;;
26098;SDS011;13860;52.370;6.764;2023-03-14T15:46:26;6.68;;;1.40;;
26098;SDS011;13860;52.370;6.764;2023-03-14T15:49:34;7.05;;;1.17;;
26098;SDS011;13860;52.370;6.764;2023-03-14T15:52:38;9.88;;;1.48;;
26098;SDS011;13860;52.370;6.764;2023-03-14T15:55:46;9.38;;;1.42;;
26098;SDS011;13860;52.370;6.764;2023-03-14T15:58:52;8.60;;;1.50;;
26098;SDS011;13860;52.370;6.764;2023-03-14T16:01:58;6.18;;;1.10;;
26098;SDS011;13860;52.370;6.764;2023-03-14T16:05:03;10.07;;;1.48;;
26098;SDS011;13860;52.370;6.764;2023-03-14T16:08:09;7.07;;;1.52;;
26098;SDS011;13860;52.370;6.764;2023-03-14T16:11:16;17.67;;;2.38;;
26098;SDS011;13860;52.370;6.764;2023-03-14T16:14:25;4.88;;;1.20;;
26098;SDS011;13860;52.370;6.764;2023-03-14T16:20:35;9.93;;;1.50;;
26098;SDS011;13860;52.370;6.764;2023-03-14T16:23:48;10.87;;;1.70;;
26098;SDS011;13860;52.370;6.764;2023-03-14T16:26:56;18.98;;;2.20;;
26098;SDS011;13860;52.370;6.764;2023-03-14T16:30:00;11.50;;;2.20;;
26098;SDS011;13860;52.370;6.764;2023-03-14T16:33:06;16.33;;;2.10;;
26098;SDS011;13860;52.370;6.764;2023-03-14T16:36:13;8.52;;;1.45;;
26098;SDS011;13860;52.370;6.764;2023-03-14T16:39:19;20.42;;;2.08;;
26098;SDS011;13860;52.370;6.764;2023-03-14T16:42:26;11.00;;;1.60;;
26098;SDS011;13860;52.370;6.764;2023-03-14T16:45:32;9.82;;;1.52;;
26098;SDS011;13860;52.370;6.764;2023-03-14T16:48:39;10.05;;;1.92;;
26098;SDS011;13860;52.370;6.764;2023-03-14T16:51:46;13.23;;;1.50;;
26098;SDS011;13860;52.370;6.764;2023-03-14T16:57:58;8.07;;;2.13;;
26098;SDS011;13860;52.370;6.764;2023-03-14T17:01:03;7.35;;;1.60;;
26098;SDS011;13860;52.370;6.764;2023-03-14T17:04:12;6.97;;;2.13;;
26098;SDS011;13860;52.370;6.764;2023-03-14T17:07:16;10.30;;;1.48;;
26098;SDS011;13860;52.370;6.764;2023-03-14T17:10:22;7.50;;;1.40;;
26098;SDS011;13860;52.370;6.764;2023-03-14T17:13:28;9.63;;;1.70;;
26098;SDS011;13860;52.370;6.764;2023-03-14T17:16:34;9.02;;;1.80;;
26098;SDS011;13860;52.370;6.764;2023-03-14T17:22:44;7.60;;;1.25;;
26098;SDS011;13860;52.370;6.764;2023-03-14T17:28:56;10.55;;;1.95;;
26098;SDS011;13860;52.370;6.764;2023-03-14T17:32:00;23.80;;;2.38;;
26098;SDS011;13860;52.370;6.764;2023-03-14T17:35:06;10.82;;;1.33;;
26098;SDS011;13860;52.370;6.764;2023-03-14T17:38:10;11.23;;;1.48;;
26098;SDS011;13860;52.370;6.764;2023-03-14T17:41:16;8.43;;;1.48;;
26098;SDS011;13860;52.370;6.764;2023-03-14T17:47:28;6.72;;;1.50;;
26098;SDS011;13860;52.370;6.764;2023-03-14T17:53:38;12.40;;;1.80;;
26098;SDS011;13860;52.370;6.764;2023-03-14T17:59:50;6.13;;;1.40;;
26098;SDS011;13860;52.370;6.764;2023-03-14T18:02:54;8.50;;;1.63;;
26098;SDS011;13860;52.370;6.764;2023-03-14T18:06:05;15.25;;;1.83;;
26098;SDS011;13860;52.370;6.764;2023-03-14T18:09:10;12.15;;;2.42;;
26098;SDS011;13860;52.370;6.764;2023-03-14T18:12:19;9.13;;;2.08;;
26098;SDS011;13860;52.370;6.764;2023-03-14T18:15:25;11.85;;;1.92;;
26098;SDS011;13860;52.370;6.764;2023-03-14T18:18:31;7.45;;;1.95;;
26098;SDS011;13860;52.370;6.764;2023-03-14T18:24:43;7.28;;;1.88;;
26098;SDS011;13860;52.370;6.764;2023-03-14T18:27:47;18.92;;;1.80;;
26098;SDS011;13860;52.370;6.764;2023-03-14T18:31:00;14.20;;;2.83;;
26098;SDS011;13860;52.370;6.764;2023-03-14T18:34:05;16.27;;;2.00;;
26098;SDS011;13860;52.370;6.764;2023-03-14T18:37:11;9.20;;;2.47;;
26098;SDS011;13860;52.370;6.764;2023-03-14T18:43:22;12.38;;;2.25;;
26098;SDS011;13860;52.370;6.764;2023-03-14T18:46:28;11.98;;;3.03;;
26098;SDS011;13860;52.370;6.764;2023-03-14T18:49:35;8.68;;;1.60;;
26098;SDS011;13860;52.370;6.764;2023-03-14T18:52:39;13.25;;;2.33;;
26098;SDS011;13860;52.370;6.764;2023-03-14T18:55:45;11.63;;;1.95;;
26098;SDS011;13860;52.370;6.764;2023-03-14T18:58:49;7.88;;;1.77;;
26098;SDS011;13860;52.370;6.764;2023-03-14T19:01:57;10.55;;;2.58;;
26098;SDS011;13860;52.370;6.764;2023-03-14T19:05:01;15.98;;;2.35;;
26098;SDS011;13860;52.370;6.764;2023-03-14T19:08:08;6.68;;;2.15;;
26098;SDS011;13860;52.370;6.764;2023-03-14T19:11:15;11.30;;;1.98;;
26098;SDS011;13860;52.370;6.764;2023-03-14T19:14:21;11.80;;;2.33;;
26098;SDS011;13860;52.370;6.764;2023-03-14T19:17:28;9.98;;;2.03;;
26098;SDS011;13860;52.370;6.764;2023-03-14T19:20:33;9.63;;;1.55;;
26098;SDS011;13860;52.370;6.764;2023-03-14T19:23:38;5.85;;;1.70;;
26098;SDS011;13860;52.370;6.764;2023-03-14T19:26:46;15.85;;;2.03;;
26098;SDS011;13860;52.370;6.764;2023-03-14T19:29:51;11.43;;;1.98;;
26098;SDS011;13860;52.370;6.764;2023-03-14T19:32:59;8.10;;;2.13;;
26098;SDS011;13860;52.370;6.764;2023-03-14T19:36:04;8.20;;;1.70;;
26098;SDS011;13860;52.370;6.764;2023-03-14T19:39:11;10.45;;;2.08;;
26098;SDS011;13860;52.370;6.764;2023-03-14T19:45:21;10.07;;;1.90;;
26098;SDS011;13860;52.370;6.764;2023-03-14T19:48:29;10.05;;;2.00;;
26098;SDS011;13860;52.370;6.764;2023-03-14T19:51:35;6.63;;;1.42;;
26098;SDS011;13860;52.370;6.764;2023-03-14T19:57:45;11.93;;;1.95;;
26098;SDS011;13860;52.370;6.764;2023-03-14T20:00:49;15.45;;;2.03;;
26098;SDS011;13860;52.370;6.764;2023-03-14T20:03:57;7.50;;;1.70;;
26098;SDS011;13860;52.370;6.764;2023-03-14T20:07:04;4.80;;;2.10;;
26098;SDS011;13860;52.370;6.764;2023-03-14T20:10:10;7.70;;;1.38;;
26098;SDS011;13860;52.370;6.764;2023-03-14T20:13:16;8.27;;;1.70;;